Flight Track Log - Related Links

Times and Time Zones

All times are in EDT time to prevent confusion due to time zone crossing. See the EJA727 flight status page for this flight to view local times or setup timezone preferences in your user account.

Time Position Orientation Groundspeed Altitude Reporting Facility
EDT Latitude Longitude Course Direction KTS MPH feet Rate Location/Type
Wed 08:08:18 AM 44.9000 -93.2833 265° West 210 242 3,700  Level Minneapolis TRACON
Wed 08:08:38 AM 44.8994 -93.2928 265° West 208 239 4,100 3,407 Climbing Minneapolis Center
Wed 08:09:39 AM 44.8681 -93.4011 248° West 277 319 8,300 4,049 Climbing Minneapolis Center
Wed 08:10:41 AM 44.8125 -93.4881 228° Southwest 302 348 12,400 3,415 Climbing Minneapolis Center
Wed 08:11:42 AM 44.7514 -93.5825 228° Southwest 333 383 15,300 2,754 Climbing Minneapolis Center
Wed 08:12:43 AM 44.6828 -93.6897 228° Southwest 370 426 18,000 2,634 Climbing Minneapolis Center
Wed 08:13:45 AM 44.6131 -93.7978 228° Southwest 376 433 20,700 2,390 Climbing Minneapolis Center
Wed 08:14:46 AM 44.5444 -93.9172 231° Southwest 390 449 22,900 1,268 Climbing Minneapolis Center
Wed 08:15:48 AM 44.4736 -94.0522 234° Southwest 429 494 23,300 1,415 Climbing Minneapolis Center
Wed 08:16:49 AM 44.3883 -94.2147 234° Southwest 435 501 25,800 2,195 Climbing Minneapolis Center
Wed 08:17:51 AM 44.3183 -94.3469 234° Southwest 427 491 27,800 1,839 Climbing Minneapolis Center
Wed 08:18:53 AM 44.2503 -94.4758 234° Southwest 417 480 29,600 1,366 Climbing Minneapolis Center
Wed 08:19:54 AM 44.1797 -94.6069 233° Southwest 421 484 30,600 976 Climbing Minneapolis Center
Wed 08:20:56 AM 44.1081 -94.7381 233° Southwest 429 494 31,600 976 Climbing Minneapolis Center
Wed 08:21:57 AM 44.0353 -94.8744 233° Southwest 435 501 32,600 1,073 Climbing Minneapolis Center
Wed 08:22:59 AM 43.9472 -95.0347 233° Southwest 436 502 33,800 1,065 Climbing Minneapolis Center
Wed 08:24:01 AM 43.8756 -95.1672 233° Southwest 433 498 34,800 976 Climbing Minneapolis Center
Wed 08:25:02 AM 43.8050 -95.2956 233° Southwest 424 488 35,800 634 Climbing Minneapolis Center
Wed 08:26:04 AM 43.7494 -95.3964 233° Southwest 417 480 36,100 581 Climbing Minneapolis Center
Wed 08:27:06 AM 43.6653 -95.5481 233° Southwest 414 476 37,000 732 Climbing Minneapolis Center
Wed 08:28:07 AM 43.6086 -95.6900 241° Southwest 421 484 37,600 488 Climbing Minneapolis Center
Wed 08:29:09 AM 43.5556 -95.8353 243° Southwest 424 488 38,000 195 Climbing Minneapolis Center
Wed 08:30:10 AM 43.5000 -95.9878 243° Southwest 441 507 38,000  Level Minneapolis Center
Wed 08:31:12 AM 43.4431 -96.1442 243° Southwest 455 524 38,000  Level Minneapolis Center
Wed 08:32:13 AM 43.3864 -96.2997 243° Southwest 455 524 38,000  Level Minneapolis Center
Wed 08:33:15 AM 43.3183 -96.4844 243° Southwest 452 520 38,000  Level Minneapolis Center
Wed 08:34:17 AM 43.2614 -96.6386 243° Southwest 452 520 38,000  Level Minneapolis Center
Wed 08:35:18 AM 43.2039 -96.7925 243° Southwest 453 521 38,000  Level Minneapolis Center
Wed 08:36:20 AM 43.1464 -96.9444 243° Southwest 451 519 38,000  Level Minneapolis Center
Wed 08:37:22 AM 43.0900 -97.0944 243° Southwest 445 512 38,000  Level Minneapolis Center
Wed 08:38:23 AM 43.0317 -97.2469 242° Southwest 451 519 38,000  Level Minneapolis Center
Wed 08:39:25 AM 42.9750 -97.3992 243° Southwest 451 519 38,000  Level Minneapolis Center
Wed 08:40:38 AM 42.9050 -97.5800 242° Southwest 451 519 38,000  Level Minneapolis Center
Wed 08:41:40 AM 42.8347 -97.7608 242° Southwest 451 519 38,000  Level Minneapolis Center
Wed 08:42:42 AM 42.7758 -97.9125 242° Southwest 453 521 38,000  Level Minneapolis Center
Wed 08:43:43 AM 42.7167 -98.0619 242° Southwest 451 519 38,000  Level Minneapolis Center
Wed 08:44:45 AM 42.6564 -98.2167 242° Southwest 449 517 38,000  Level Minneapolis Center
Wed 08:45:46 AM 42.5986 -98.3658 242° Southwest 447 514 38,000  Level Minneapolis Center
Wed 08:46:48 AM 42.5394 -98.5136 242° Southwest 447 514 38,000  Level Minneapolis Center
Wed 08:47:49 AM 42.4822 -98.6594 242° Southwest 441 507 38,000  Level Minneapolis Center
Wed 08:49:03 AM 42.4486 -98.8161 254° West 438 504 38,000  Level Minneapolis Center
Wed 08:50:04 AM 42.4142 -99.0047 256° West 432 497 38,000  Level Minneapolis Center
Wed 08:51:06 AM 42.3797 -99.1969 256° West 437 503 38,000  Level Minneapolis Center
Wed 08:52:07 AM 42.3497 -99.3572 256° West 440 506 38,000  Level Minneapolis Center
Wed 08:52:51 AM 42.3328 -99.4519 256° West 438 504 38,000  Level Denver Center
Wed 08:53:52 AM 42.2964 -99.6464 256° West 445 512 38,000  Level Denver Center
Wed 08:54:54 AM 42.2675 -99.7964 255° West 442 509 38,000  Level Denver Center
Wed 08:55:55 AM 42.2392 -99.9511 256° West 445 512 38,000  Level Denver Center
Wed 08:56:56 AM 42.2042 -100.1306 255° West 445 512 38,000  Level Denver Center
Wed 08:57:57 AM 42.1756 -100.2853 256° West 445 512 38,000  Level Denver Center
Wed 08:58:58 AM 42.1400 -100.4633 255° West 443 510 38,000  Level Denver Center
Wed 09:00:11 AM 42.1097 -100.6161 255° West 442 509 38,000  Level Denver Center
Wed 09:01:12 AM 42.0706 -100.8258 256° West 450 518 38,000  Level Denver Center
Wed 09:02:13 AM 42.0383 -100.9833 255° West 456 525 38,000  Level Denver Center
Wed 09:03:14 AM 42.0083 -101.1389 255° West 452 520 38,000  Level Denver Center
Wed 09:04:15 AM 41.9714 -101.3233 255° West 457 526 38,000  Level Denver Center
Wed 09:05:16 AM 41.9383 -101.4814 254° West 459 528 38,000  Level Denver Center
Wed 09:06:17 AM 41.9058 -101.6417 255° West 465 535 38,000  Level Denver Center
Wed 09:07:19 AM 41.8667 -101.8294 254° West 469 540 38,000  Level Denver Center
Wed 09:08:20 AM 41.8331 -101.9906 254° West 470 541 38,000  Level Denver Center
Wed 09:09:21 AM 41.7936 -102.1783 254° West 471 542 38,000  Level Denver Center
Wed 09:10:22 AM 41.7572 -102.3475 254° West 468 539 38,000  Level Denver Center
Wed 09:11:23 AM 41.7247 -102.5003 254° West 473 544 38,000  Level Denver Center
Wed 09:12:24 AM 41.6872 -102.6731 254° West 475 547 38,000  Level Denver Center
Wed 09:13:25 AM 41.6464 -102.8631 254° West 476 548 38,000  Level Denver Center
Wed 09:14:26 AM 41.6097 -103.0253 253° West 475 547 38,000  Level Denver Center
Wed 09:15:27 AM 41.5744 -103.1897 254° West 479 551 38,000  Level Denver Center
Wed 09:16:28 AM 41.5319 -103.3783 253° West 475 547 38,000  Level Denver Center
Wed 09:17:41 AM 41.4956 -103.5414 253° West 478 550 38,000  Level Denver Center
Wed 09:18:42 AM 41.4469 -103.7572 253° West 476 548 38,000  Level Denver Center
Wed 09:19:43 AM 41.4103 -103.9189 253° West 477 549 38,000  Level Denver Center
Wed 09:20:44 AM 41.3728 -104.0817 253° West 478 550 38,000  Level Denver Center
Wed 09:21:45 AM 41.3292 -104.2700 253° West 476 548 38,000  Level Denver Center
Wed 09:22:46 AM 41.2911 -104.4297 252° West 473 544 38,000  Level Denver Center
Wed 09:23:47 AM 41.2528 -104.5933 253° West 480 552 38,000  Level Denver Center
Wed 09:24:48 AM 41.2078 -104.7808 252° West 478 550 38,000  Level Denver Center
Wed 09:25:49 AM 41.1558 -104.9333 246° West 474 545 38,000  Level Denver Center
Wed 09:26:50 AM 41.1119 -105.0583 245° Southwest 468 539 38,000  Level Denver Center
Wed 09:27:51 AM 41.0431 -105.2567 245° Southwest 466 536 38,000  Level Denver Center
Wed 09:28:52 AM 40.9864 -105.4181 245° Southwest 467 537 38,000  Level Denver Center
Wed 09:29:53 AM 40.9317 -105.5750 245° Southwest 467 537 38,000  Level Denver Center
Wed 09:30:54 AM 40.8847 -105.7047 244° Southwest 468 539 38,000  Level Denver Center
Wed 09:31:55 AM 40.8200 -105.8881 245° Southwest 466 536 38,000  Level Denver Center
Wed 09:33:08 AM 40.7553 -106.0711 245° Southwest 470 541 38,000  Level Denver Center
Wed 09:34:09 AM 40.6994 -106.2244 244° Southwest 469 540 38,000  Level Denver Center
Wed 09:35:10 AM 40.6367 -106.3989 245° Southwest 472 543 38,000  Level Denver Center
Wed 09:36:11 AM 40.5864 -106.5342 244° Southwest 470 541 38,000  Level Denver Center
Wed 09:37:12 AM 40.5308 -106.6894 245° Southwest 470 541 38,000  Level Denver Center
Wed 09:38:13 AM 40.4642 -106.8675 244° Southwest 470 541 38,000  Level Denver Center
Wed 09:39:14 AM 40.4103 -107.0147 244° Southwest 468 539 38,000  Level Denver Center
Wed 09:40:15 AM 40.3539 -107.1644 244° Southwest 476 548 38,000  Level Denver Center
Wed 09:41:16 AM 40.2908 -107.3372 244° Southwest 472 543 38,000  Level Denver Center
Wed 09:42:17 AM 40.2339 -107.4861 243° Southwest 476 548 38,000  Level Denver Center
Wed 09:43:18 AM 40.1781 -107.6333 244° Southwest 475 547 38,000  Level Denver Center
Wed 09:44:31 AM 40.1128 -107.8081 244° Southwest 477 549 38,000  Level Denver Center
Wed 09:45:32 AM 40.0433 -107.9767 242° Southwest 473 544 38,000  Level Denver Center
Wed 09:46:33 AM 39.9611 -108.1353 236° Southwest 472 543 38,000  Level Denver Center
Wed 09:47:46 AM 39.8892 -108.2725 236° Southwest 481 554 38,000  Level Denver Center
Wed 09:48:48 AM 39.7978 -108.4519 237° Southwest 455 524 38,000  Level Denver Center
Wed 09:49:49 AM 39.7292 -108.5864 236° Southwest 464 534 38,000  Level Denver Center
Wed 09:50:50 AM 39.6500 -108.7386 236° Southwest 476 548 38,000  Level Denver Center
Wed 09:51:51 AM 39.5814 -108.8683 236° Southwest 471 542 38,000  Level Denver Center
Wed 09:52:52 AM 39.4997 -109.0242 236° Southwest 469 540 38,000  Level Denver Center
Wed 09:53:53 AM 39.4292 -109.1583 236° Southwest 471 542 38,000  Level Denver Center
Wed 09:54:54 AM 39.3472 -109.3142 236° Southwest 469 540 38,000  Level Denver Center
Wed 09:55:27 AM 39.3119 -109.3814 236° Southwest 470 541 38,000  Level Salt Lake Center
Wed 09:56:29 AM 39.2414 -109.5158 236° Southwest 472 543 38,000  Level Salt Lake Center
Wed 09:57:30 AM 39.1578 -109.6711 235° Southwest 472 543 38,000  Level Salt Lake Center
Wed 09:57:58 AM 39.1225 -109.7375 236° Southwest 471 542 38,000  Level Denver Center
Wed 09:58:59 AM 39.0531 -109.8703 236° Southwest 468 539 38,000  Level Denver Center
Wed 09:59:32 AM 39.0050 -109.9583 235° Southwest 469 540 38,000  Level Salt Lake Center
Wed 10:00:34 AM 38.9336 -110.0897 235° Southwest 469 540 38,000  Level Salt Lake Center
Wed 10:01:02 AM 38.8983 -110.1558 236° Southwest 469 540 38,000  Level Denver Center
Wed 10:02:03 AM 38.8275 -110.2886 236° Southwest 471 542 38,000  Level Denver Center
Wed 10:03:04 AM 38.7403 -110.4381 233° Southwest 469 540 38,000  Level Denver Center
Wed 10:03:38 AM 38.7056 -110.5072 237° Southwest 475 547 38,000  Level Salt Lake Center
Wed 10:04:39 AM 38.6217 -110.6597 235° Southwest 470 541 38,000  Level Salt Lake Center
Wed 10:05:41 AM 38.5497 -110.7894 235° Southwest 468 539 38,000  Level Salt Lake Center
Wed 10:06:42 AM 38.4769 -110.9181 234° Southwest 466 536 38,000  Level Salt Lake Center
Wed 10:07:43 AM 38.4044 -111.0514 235° Southwest 465 535 38,000  Level Salt Lake Center
Wed 10:08:45 AM 38.3289 -111.1836 234° Southwest 463 533 38,000  Level Salt Lake Center
Wed 10:09:46 AM 38.2389 -111.3428 234° Southwest 462 532 38,000  Level Salt Lake Center
Wed 10:10:48 AM 38.1642 -111.4772 235° Southwest 466 536 38,000  Level Salt Lake Center
Wed 10:11:49 AM 38.0889 -111.6092 234° Southwest 465 535 38,000  Level Salt Lake Center
Wed 10:12:51 AM 38.0111 -111.7425 234° Southwest 468 539 38,000  Level Salt Lake Center
Wed 10:13:52 AM 37.9353 -111.8767 234° Southwest 469 540 38,000  Level Salt Lake Center
Wed 10:14:53 AM 37.8586 -112.0092 234° Southwest 468 539 38,000  Level Salt Lake Center
Wed 10:15:55 AM 37.7822 -112.1406 234° Southwest 465 535 38,000  Level Salt Lake Center
Wed 10:16:56 AM 37.7067 -112.2728 234° Southwest 464 534 38,000  Level Salt Lake Center
Wed 10:17:58 AM 37.6392 -112.4108 238° Southwest 462 532 38,000  Level Salt Lake Center
Wed 10:18:59 AM 37.5622 -112.5806 240° Southwest 462 532 38,000  Level Salt Lake Center
Wed 10:20:01 AM 37.4967 -112.7225 240° Southwest 462 532 38,000  Level Salt Lake Center
Wed 10:21:02 AM 37.4297 -112.8661 240° Southwest 463 533 38,000  Level Salt Lake Center
Wed 10:22:04 AM 37.3636 -113.0075 240° Southwest 463 533 38,000  Level Salt Lake Center
Wed 10:23:05 AM 37.2997 -113.1464 240° Southwest 460 529 38,000  Level Salt Lake Center
Wed 10:24:06 AM 37.2350 -113.2847 240° Southwest 459 528 38,000  Level Salt Lake Center
Wed 10:24:53 AM 37.1828 -113.3936 239° Southwest 457 526 38,000  Level Los Angeles Center
Wed 10:25:54 AM 37.0953 -113.5100 227° Southwest 458 527 38,000  Level Los Angeles Center
Wed 10:26:56 AM 37.0058 -113.6236 225° Southwest 459 528 38,000  Level Los Angeles Center
Wed 10:28:10 AM 36.8981 -113.7589 225° Southwest 458 527 38,000  Level Los Angeles Center
Wed 10:29:12 AM 36.8058 -113.8711 224° Southwest 461 531 38,000  Level Los Angeles Center
Wed 10:30:14 AM 36.7350 -113.9617 226° Southwest 458 527 38,000  Level Los Angeles Center
Wed 10:31:16 AM 36.6072 -114.1192 225° Southwest 461 531 38,000  Level Los Angeles Center
Wed 10:32:17 AM 36.5158 -114.2314 225° Southwest 461 531 38,000  Level Los Angeles Center
Wed 10:33:19 AM 36.4250 -114.3408 224° Southwest 456 525 38,000  Level Los Angeles Center
Wed 10:34:21 AM 36.3339 -114.4533 225° Southwest 460 529 38,000 -629 Level Los Angeles Center
Wed 10:35:23 AM 36.2431 -114.5647 225° Southwest 459 528 36,700 -1,645 Descending Los Angeles Center
Wed 10:36:25 AM 36.1539 -114.6717 224° Southwest 449 517 34,600 -2,000 Descending Los Angeles Center
Wed 10:37:26 AM 36.0686 -114.7756 225° Southwest 434 499 32,600 -1,268 Descending Los Angeles Center
Wed 10:38:28 AM 35.9831 -114.8778 224° Southwest 429 494 32,000 -290 Descending Los Angeles Center
Wed 10:39:30 AM 35.8844 -115.0128 228° Southwest 439 505 32,000  Level Los Angeles Center
Wed 10:40:31 AM 35.8033 -115.1242 228° Southwest 435 501 32,000  Level Los Angeles Center
Wed 10:41:33 AM 35.7283 -115.2267 228° Southwest 404 465 32,000  Level Los Angeles Center
Wed 10:42:35 AM 35.6569 -115.3219 227° Southwest 381 438 32,000  Level Los Angeles Center
Wed 10:43:37 AM 35.5844 -115.4194 228° Southwest 382 440 32,000  Level Los Angeles Center
Wed 10:44:39 AM 35.5119 -115.5167 228° Southwest 384 442 32,000  Level Los Angeles Center
Wed 10:45:41 AM 35.4392 -115.6164 228° Southwest 387 445 32,000  Level Los Angeles Center
Wed 10:46:42 AM 35.3625 -115.7192 228° Southwest 400 460 32,000  Level Los Angeles Center
Wed 10:47:44 AM 35.2856 -115.8222 228° Southwest 409 471 32,000  Level Los Angeles Center
Wed 10:48:46 AM 35.1914 -115.9456 227° Southwest 412 474 32,000  Level Los Angeles Center
Wed 10:49:48 AM 35.1142 -116.0483 227° Southwest 411 473 32,000 -677 Level Los Angeles Center
Wed 10:50:50 AM 35.0375 -116.1497 227° Southwest 409 471 30,600 -1,645 Descending Los Angeles Center
Wed 10:51:52 AM 34.9619 -116.2472 227° Southwest 398 458 28,600 -2,032 Descending Los Angeles Center
Wed 10:52:54 AM 34.8867 -116.3453 223° Southwest 396 456 26,400 -2,146 Descending Los Angeles Center
Wed 10:53:00 AM 34.8637 -116.3589 223° Southwest  Level FlightAware Approximate
Wed 10:53:55 AM 34.8039 -116.4606 229° Southwest 446 513 24,200  Level Los Angeles Center
Wed 10:54:57 AM 34.7833 -116.6111 261° West 453 521 23,100 -1,065 Descending Los Angeles Center
Wed 10:55:59 AM 34.7650 -116.7894 263° West 446 513 22,000 -532 Descending Los Angeles Center
Wed 10:57:01 AM 34.7497 -116.9389 263° West 445 512 22,000  Level Los Angeles Center
Wed 10:58:03 AM 34.7344 -117.0883 263° West 445 512 22,000 -774 Level Los Angeles Center
Wed 10:59:05 AM 34.7194 -117.2311 263° West 430 495 20,400 -1,512 Descending Los Angeles Center
Wed 11:00:06 AM 34.7053 -117.3658 263° West 408 470 18,900 -1,415 Descending Los Angeles Center
Wed 11:01:08 AM 34.6906 -117.4994 262° West 399 459 17,500 -1,403 Descending Los Angeles Center
Wed 11:02:10 AM 34.6772 -117.6297 263° West 391 450 16,000 -1,452 Descending Los Angeles Center
Wed 11:03:12 AM 34.6631 -117.7592 262° West 388 447 14,500 -1,645 Descending Los Angeles Center
Wed 11:04:14 AM 34.6481 -117.9069 263° West 370 426 12,600 -1,645 Descending Los Angeles Center
Wed 11:05:16 AM 34.6356 -118.0247 263° West 354 407 11,100 -1,403 Descending Los Angeles Center
Wed 11:06:18 AM 34.6108 -118.1286 254° West 307 353 9,700 -1,306 Descending Los Angeles Center
Wed 11:07:20 AM 34.5800 -118.2183 247° West 295 339 8,400 -871 Descending Los Angeles Center
Wed 11:08:22 AM 34.5511 -118.3042 248° West 277 319 7,900 -194 Descending Los Angeles Center
Wed 11:09:24 AM 34.5161 -118.4086 248° West 278 320 8,000 -530 Climbing Los Angeles Center
Wed 11:11:23 AM 34.4333 -118.5500 235° Southwest 276 318 6,300 -972 Descending Southern California TRACON
Wed 11:12:23 AM 34.3833 -118.6167 228° Southwest 271 312 5,100 -600 Descending Southern California TRACON
Wed 11:13:23 AM 34.3333 -118.6833 228° Southwest 268 308 5,100 -103 Level Southern California TRACON
Wed 11:14:19 AM 34.2728 -118.7447 220° Southwest 275 316 4,900 -85 Descending Los Angeles Center
Wed 11:14:34 AM 34.2622 -118.7661 239° Southwest 269 310 5,000 -885 Climbing Los Angeles Center
Wed 11:15:20 AM 34.2281 -118.8142 229° Southwest 253 291 4,000 -1,161 Descending Los Angeles Center
Wed 11:15:36 AM 34.2306 -118.8353 278° West 242 278 3,800 -800 Descending Los Angeles Center
Wed 11:16:20 AM 34.2231 -118.8781 258° West 170 196 3,200 -484 Descending Los Angeles Center
Wed 11:16:38 AM 34.2247 -118.8967 276° West 208 239 3,300 -545 Climbing Los Angeles Center
Wed 11:17:15 AM 34.2203 -118.9336 262° West 163 188 2,700 -581 Descending Los Angeles Center
Wed 11:17:40 AM 34.2194 -118.9572 268° West 189 217 2,700 -1,100 Level Los Angeles Center
Wed 11:18:15 AM 34.2181 -118.9814 266° West 143 165 1,600 -581 Descending Los Angeles Center
Wed 11:18:42 AM 34.2164 -119.0033 265° West 184 212 2,100 -492 Climbing Los Angeles Center
Wed 11:19:16 AM 34.2136 -119.0294 263° West 135 155 1,100 -1,765 Descending Los Angeles Center
Wed 11:21:00 AM 34.2000 -119.0833 259° West  Level FlightAware Approximate

Login

Don't have an account? Register now (free) for customized features, flight alerts, and more!